createdAt,value
2023-02-05T00:00:56.458Z,100934.12
2023-02-05T00:03:24.057Z,100931.63
2023-02-05T00:05:51.242Z,100935.37
2023-02-05T00:08:18.430Z,100946.13
2023-02-05T00:10:51.143Z,100946.25
2023-02-05T00:13:18.290Z,100957.31
2023-02-05T00:15:45.719Z,100953.31
2023-02-05T00:18:12.954Z,100956.03
2023-02-05T00:20:40.141Z,100953.28
2023-02-05T00:23:07.610Z,100960.50
2023-02-05T00:25:35.084Z,100958.87
2023-02-05T00:28:02.520Z,100954.78
2023-02-05T00:30:30.256Z,100957.19
2023-02-05T00:32:57.470Z,100964.44
2023-02-05T00:35:24.624Z,100966.59
2023-02-05T00:37:52.114Z,100970.38
2023-02-05T00:40:19.317Z,100957.94
2023-02-05T00:42:46.473Z,100962.22
2023-02-05T00:45:13.934Z,100971.81
2023-02-05T00:47:41.108Z,100979.13
2023-02-05T00:50:08.412Z,100974.94
2023-02-05T00:52:35.930Z,100975.66
2023-02-05T00:55:03.148Z,100988.00
2023-02-05T00:57:30.307Z,100987.72
2023-02-05T00:59:57.758Z,100991.12
2023-02-05T01:02:25.400Z,100992.47
2023-02-05T01:04:52.648Z,100989.47
2023-02-05T01:07:20.382Z,100994.34
2023-02-05T01:09:48.765Z,100992.94
2023-02-05T01:12:15.893Z,100989.16
2023-02-05T01:14:43.370Z,100989.75
2023-02-05T01:17:10.525Z,100998.97
2023-02-05T01:19:37.693Z,100997.09
2023-02-05T01:22:05.418Z,101009.50
2023-02-05T01:24:33.042Z,101001.94
2023-02-05T01:27:00.255Z,101007.53
2023-02-05T01:29:29.342Z,101007.09
2023-02-05T01:31:56.759Z,100999.34
2023-02-05T01:34:23.936Z,100993.69
2023-02-05T01:36:51.443Z,101001.28
2023-02-05T01:39:18.622Z,100999.41
2023-02-05T01:41:46.577Z,100997.28
2023-02-05T01:44:18.625Z,100997.13
2023-02-05T01:46:46.474Z,100991.66
2023-02-05T01:49:24.187Z,100986.44
2023-02-05T01:51:53.172Z,100990.88
2023-02-05T01:54:20.753Z,100978.91
2023-02-05T01:56:52.324Z,100978.03
2023-02-05T01:59:21.804Z,100982.37
2023-02-05T02:01:49.294Z,100980.81
2023-02-05T02:04:19.008Z,100986.59
2023-02-05T02:06:46.311Z,100997.62
2023-02-05T02:09:13.521Z,100997.41
2023-02-05T02:11:41.421Z,100997.41
2023-02-05T02:14:08.694Z,101000.28
2023-02-05T02:16:37.381Z,101003.81
2023-02-05T02:19:05.370Z,100995.94
2023-02-05T02:21:35.973Z,101003.72
2023-02-05T02:24:09.247Z,101000.53
2023-02-05T02:26:55.379Z,101005.56
2023-02-05T02:29:32.661Z,101011.97
2023-02-05T02:32:00.837Z,101012.28
2023-02-05T02:34:33.209Z,101006.94
2023-02-05T02:37:07.717Z,101008.91
2023-02-05T02:39:35.116Z,101008.88
2023-02-05T02:42:06.517Z,101007.53
2023-02-05T02:44:35.024Z,101015.28
2023-02-05T02:47:04.165Z,101012.91
2023-02-05T02:49:33.024Z,101021.13
2023-02-05T02:52:00.685Z,101020.00
2023-02-05T02:54:28.092Z,101026.34
2023-02-05T02:56:55.519Z,101036.13
2023-02-05T02:59:26.067Z,101033.41
2023-02-05T03:01:55.163Z,101029.00
2023-02-05T03:04:29.664Z,101036.25
2023-02-05T03:06:59.876Z,101034.69
2023-02-05T03:09:30.486Z,101036.34
2023-02-05T03:11:58.147Z,101033.59
2023-02-05T03:14:25.516Z,101043.87
2023-02-05T03:16:52.982Z,101041.31
2023-02-05T03:19:20.539Z,101048.84
2023-02-05T03:21:48.434Z,101048.94
2023-02-05T03:24:15.644Z,101056.03
2023-02-05T03:26:43.186Z,101049.41
2023-02-05T03:29:13.438Z,101057.47
2023-02-05T03:31:40.819Z,101050.19
2023-02-05T03:34:17.126Z,101061.31
2023-02-05T03:36:49.232Z,101074.50
2023-02-05T03:39:31.384Z,101074.59
2023-02-05T03:42:21.850Z,101074.88
2023-02-05T03:44:52.212Z,101085.22
2023-02-05T03:47:19.477Z,101085.06
2023-02-05T03:50:08.792Z,101083.66
2023-02-05T03:52:38.253Z,101083.88
2023-02-05T03:55:09.557Z,101086.09
2023-02-05T03:57:42.753Z,101092.28
2023-02-05T04:00:11.179Z,101095.81
2023-02-05T04:02:41.159Z,101105.38
2023-02-05T04:05:09.124Z,101102.13
2023-02-05T04:07:36.501Z,101099.25
2023-02-05T04:10:04.586Z,101104.34
2023-02-05T04:12:32.205Z,101104.06
2023-02-05T04:14:59.451Z,101112.75
2023-02-05T04:17:26.653Z,101110.78
2023-02-05T04:19:54.134Z,101104.41
2023-02-05T04:22:21.434Z,101108.66
2023-02-05T04:24:48.710Z,101109.06
2023-02-05T04:27:17.013Z,101124.69
2023-02-05T04:29:44.262Z,101125.66
2023-02-05T04:32:11.434Z,101128.13
2023-02-05T04:34:38.888Z,101127.56
2023-02-05T04:37:06.877Z,101128.94
2023-02-05T04:39:34.095Z,101124.91
2023-02-05T04:42:01.901Z,101132.25
2023-02-05T04:44:29.104Z,101138.84
2023-02-05T04:46:56.256Z,101130.72
2023-02-05T04:49:23.678Z,101139.47
2023-02-05T04:51:50.888Z,101138.94
2023-02-05T04:54:18.053Z,101151.06
2023-02-05T04:56:46.882Z,101144.44
2023-02-05T04:59:14.149Z,101152.69
2023-02-05T05:01:41.344Z,101144.63
2023-02-05T05:04:09.061Z,101144.44
2023-02-05T05:06:36.211Z,101157.53
2023-02-05T05:09:03.562Z,101154.41
2023-02-05T05:11:31.046Z,101153.75
2023-02-05T05:13:58.159Z,101150.19
2023-02-05T05:16:25.318Z,101150.25
2023-02-05T05:18:52.790Z,101159.78
2023-02-05T05:21:19.938Z,101165.28
2023-02-05T05:23:47.169Z,101168.22
2023-02-05T05:26:14.598Z,101170.13
2023-02-05T05:28:41.743Z,101178.00
2023-02-05T05:31:10.117Z,101179.97
2023-02-05T05:33:37.852Z,101182.63
2023-02-05T05:36:05.659Z,101184.19
2023-02-05T05:38:32.855Z,101188.88
2023-02-05T05:41:18.809Z,101191.56
2023-02-05T05:43:49.034Z,101193.41
2023-02-05T05:46:22.065Z,101185.47
2023-02-05T05:48:50.129Z,101190.63
2023-02-05T05:51:17.802Z,101192.09
2023-02-05T05:53:45.238Z,101194.38
2023-02-05T05:56:12.611Z,101190.59
2023-02-05T05:58:40.308Z,101197.53
2023-02-05T06:01:07.469Z,101201.78
2023-02-05T06:03:35.145Z,101203.25
2023-02-05T06:06:03.669Z,101205.94
2023-02-05T06:08:30.935Z,101214.56
2023-02-05T06:10:58.585Z,101222.44
2023-02-05T06:13:26.102Z,101226.31
2023-02-05T06:15:54.848Z,101224.00
2023-02-05T06:18:23.790Z,101228.50
2023-02-05T06:20:51.165Z,101232.56
2023-02-05T06:23:18.331Z,101232.09
2023-02-05T06:25:45.804Z,101226.03
2023-02-05T06:28:13.016Z,101229.87
2023-02-05T06:30:40.232Z,101232.16
2023-02-05T06:33:07.742Z,101230.56
2023-02-05T06:35:35.210Z,101227.19
2023-02-05T06:38:02.579Z,101232.63
2023-02-05T06:40:30.102Z,101242.22
2023-02-05T06:42:57.247Z,101247.50
2023-02-05T06:45:24.393Z,101241.47
2023-02-05T06:47:56.109Z,101254.19
2023-02-05T06:50:23.628Z,101233.37
2023-02-05T06:52:51.284Z,101244.84
2023-02-05T06:55:18.785Z,101248.09
2023-02-05T06:57:45.939Z,101243.75
2023-02-05T07:00:13.509Z,101256.78
2023-02-05T07:02:41.102Z,101258.28
2023-02-05T07:05:08.672Z,101268.31
2023-02-05T07:07:35.981Z,101268.34
2023-02-05T07:10:03.565Z,101264.69
2023-02-05T07:12:30.762Z,101275.09
2023-02-05T07:14:57.909Z,101271.44
2023-02-05T07:17:25.607Z,101281.09
2023-02-05T07:19:53.211Z,101280.22
2023-02-05T07:22:20.394Z,101275.03
2023-02-05T07:24:47.906Z,101269.19
2023-02-05T07:27:15.100Z,101284.37
2023-02-05T07:29:42.267Z,101285.75
2023-02-05T07:32:09.792Z,101288.56
2023-02-05T07:34:36.990Z,101289.66
2023-02-05T07:37:04.865Z,101288.75
2023-02-05T07:39:33.485Z,101294.56
2023-02-05T07:42:01.093Z,101290.28
2023-02-05T07:44:28.582Z,101288.66
2023-02-05T07:46:56.294Z,101280.09
2023-02-05T07:49:23.467Z,101282.25
2023-02-05T07:51:50.585Z,101284.78
2023-02-05T07:54:18.150Z,101276.91
2023-02-05T07:56:45.415Z,101280.19
2023-02-05T07:59:12.753Z,101284.81
2023-02-05T08:01:40.255Z,101277.47
2023-02-05T08:04:07.686Z,101278.25
2023-02-05T08:06:35.072Z,101279.25
2023-02-05T08:09:02.375Z,101275.69
2023-02-05T08:11:32.266Z,101273.91
2023-02-05T08:14:00.662Z,101265.38
2023-02-05T08:16:27.865Z,101275.84
2023-02-05T08:18:55.310Z,101276.84
2023-02-05T08:21:22.621Z,101274.37
2023-02-05T08:23:49.850Z,101267.81
2023-02-05T08:26:17.656Z,101266.66
2023-02-05T08:28:45.970Z,101268.22
2023-02-05T08:31:14.331Z,101261.59
2023-02-05T08:33:41.874Z,101263.66
2023-02-05T08:36:09.511Z,101255.81
2023-02-05T08:38:36.671Z,101258.28
2023-02-05T08:41:12.990Z,101257.94
2023-02-05T08:43:44.422Z,101263.53
2023-02-05T08:46:12.430Z,101262.56
2023-02-05T08:48:39.818Z,101264.22
2023-02-05T08:51:08.872Z,101265.69
2023-02-05T08:53:36.359Z,101265.50
2023-02-05T08:56:03.868Z,101271.72
2023-02-05T08:58:31.063Z,101264.31
2023-02-05T09:01:02.536Z,101270.41
2023-02-05T09:03:30.629Z,101272.88
2023-02-05T09:05:58.478Z,101275.31
2023-02-05T09:08:27.331Z,101283.81
2023-02-05T09:10:54.508Z,101276.81
2023-02-05T09:13:21.687Z,101283.81
2023-02-05T09:15:49.200Z,101271.44
2023-02-05T09:18:16.708Z,101277.47
2023-02-05T09:20:44.611Z,101280.63
2023-02-05T09:23:12.464Z,101276.34
2023-02-05T09:25:40.060Z,101277.78
2023-02-05T09:28:09.400Z,101277.53
2023-02-05T09:30:37.584Z,101281.75
2023-02-05T09:33:04.938Z,101277.28
2023-02-05T09:35:32.879Z,101285.69
2023-02-05T09:38:02.334Z,101281.72
2023-02-05T09:40:30.344Z,101286.06
2023-02-05T09:42:57.581Z,101284.00
2023-02-05T09:45:43.989Z,101287.16
2023-02-05T09:48:22.744Z,101279.09
2023-02-05T09:50:50.149Z,101278.66
2023-02-05T09:53:19.054Z,101288.88
2023-02-05T09:55:46.677Z,101285.06
2023-02-05T09:58:18.058Z,101292.16
2023-02-05T10:00:46.474Z,101280.00
2023-02-05T10:03:13.828Z,101279.88
2023-02-05T10:05:43.869Z,101275.66
2023-02-05T10:08:17.810Z,101270.87
2023-02-05T10:10:46.153Z,101268.84
2023-02-05T10:13:18.980Z,101264.59
2023-02-05T10:16:05.163Z,101271.88
2023-02-05T10:18:51.349Z,101262.03
2023-02-05T10:21:37.414Z,101255.91
2023-02-05T10:24:07.702Z,101249.81
2023-02-05T10:26:37.934Z,101256.94
2023-02-05T10:29:12.789Z,101258.00
2023-02-05T10:31:43.594Z,101258.62
2023-02-05T10:34:16.728Z,101260.66
2023-02-05T10:36:44.606Z,101248.50
2023-02-05T10:39:13.487Z,101255.41
2023-02-05T10:41:43.329Z,101252.12
2023-02-05T10:44:15.111Z,101261.66
2023-02-05T10:46:44.227Z,101252.56
2023-02-05T10:49:34.953Z,101252.09
2023-02-05T10:52:02.088Z,101249.34
2023-02-05T10:54:30.518Z,101245.78
2023-02-05T10:57:01.130Z,101243.16
2023-02-05T10:59:29.321Z,101236.53
2023-02-05T11:01:58.099Z,101242.56
2023-02-05T11:04:28.569Z,101238.66
2023-02-05T11:06:55.749Z,101241.47
2023-02-05T11:09:26.275Z,101247.69
2023-02-05T11:11:53.923Z,101246.19
2023-02-05T11:14:22.586Z,101234.56
2023-02-05T11:16:50.084Z,101233.19
2023-02-05T11:19:24.447Z,101233.97
2023-02-05T11:21:56.102Z,101228.50
2023-02-05T11:24:23.304Z,101228.25
2023-02-05T11:26:50.679Z,101232.50
2023-02-05T11:29:21.451Z,101237.19
2023-02-05T11:31:48.718Z,101228.97
2023-02-05T11:34:16.824Z,101226.94
2023-02-05T11:36:48.293Z,101219.31
2023-02-05T11:39:36.411Z,101218.28
2023-02-05T11:42:20.455Z,101215.84
2023-02-05T11:44:48.726Z,101213.94
2023-02-05T11:47:19.681Z,101197.97
2023-02-05T11:49:49.384Z,101196.78
2023-02-05T11:52:16.829Z,101194.50
2023-02-05T11:54:45.974Z,101189.91
2023-02-05T11:57:13.320Z,101188.91
2023-02-05T11:59:40.901Z,101186.81
2023-02-05T12:02:20.765Z,101185.16
2023-02-05T12:04:49.478Z,101189.78
2023-02-05T12:07:16.758Z,101180.72
2023-02-05T12:09:44.002Z,101181.00
2023-02-05T12:12:23.508Z,101180.53
2023-02-05T12:14:53.645Z,101168.22
2023-02-05T12:17:29.959Z,101170.59
2023-02-05T12:20:00.228Z,101160.78
2023-02-05T12:22:35.188Z,101163.41
2023-02-05T12:25:02.297Z,101162.13
2023-02-05T12:27:32.835Z,101164.16
2023-02-05T12:29:59.896Z,101165.78
2023-02-05T12:32:27.564Z,101155.06
2023-02-05T12:35:10.164Z,101160.78
2023-02-05T12:37:55.817Z,101155.63
2023-02-05T12:40:41.941Z,101150.25
2023-02-05T12:43:21.819Z,101157.38
2023-02-05T12:45:55.412Z,101151.13
2023-02-05T12:48:27.918Z,101146.41
2023-02-05T12:50:55.335Z,101148.16
2023-02-05T12:53:22.420Z,101142.22
2023-02-05T12:55:53.191Z,101135.19
2023-02-05T12:58:20.628Z,101142.97
2023-02-05T13:00:52.042Z,101133.91
2023-02-05T13:03:30.439Z,101132.09
2023-02-05T13:06:02.273Z,101128.97
2023-02-05T13:08:29.554Z,101128.91
2023-02-05T13:10:57.919Z,101125.59
2023-02-05T13:13:27.069Z,101127.94
2023-02-05T13:16:05.838Z,101116.81
2023-02-05T13:18:34.503Z,101118.75
2023-02-05T13:21:26.914Z,101115.06
2023-02-05T13:24:15.679Z,101125.41
2023-02-05T13:27:03.154Z,101121.63
2023-02-05T13:29:32.201Z,101120.84
2023-02-05T13:32:14.692Z,101124.00
2023-02-05T13:34:43.251Z,101124.34
2023-02-05T13:37:25.975Z,101122.31
2023-02-05T13:40:12.650Z,101121.41
2023-02-05T13:42:45.962Z,101122.44
2023-02-05T13:45:31.950Z,101122.81
2023-02-05T13:48:05.202Z,101125.50
2023-02-05T13:50:44.558Z,101123.72
2023-02-05T13:53:20.767Z,101125.44
2023-02-05T13:56:04.605Z,101116.47
2023-02-05T13:58:34.416Z,101126.84
2023-02-05T14:01:06.034Z,101129.91
2023-02-05T14:03:35.348Z,101123.22
2023-02-05T14:06:31.883Z,101126.34
2023-02-05T14:09:03.944Z,101129.59
2023-02-05T14:11:49.873Z,101125.41
2023-02-05T14:14:17.409Z,101131.50
2023-02-05T14:16:46.392Z,101129.88
2023-02-05T14:19:15.920Z,101128.94
2023-02-05T14:21:46.367Z,101137.56
2023-02-05T14:24:27.635Z,101132.84
2023-02-05T14:26:57.532Z,101140.59
2023-02-05T14:29:42.149Z,101134.72
2023-02-05T14:32:29.947Z,101142.16
2023-02-05T14:35:16.052Z,101136.56
2023-02-05T14:37:44.013Z,101132.50
2023-02-05T14:40:26.833Z,101131.53
2023-02-05T14:43:08.377Z,101128.59
2023-02-05T14:45:37.586Z,101125.47
2023-02-05T14:48:05.187Z,101123.44
2023-02-05T14:50:32.556Z,101135.06
2023-02-05T14:53:00.912Z,101127.22
2023-02-05T14:55:30.010Z,101127.38
2023-02-05T14:58:04.328Z,101127.53
2023-02-05T15:00:35.022Z,101134.75
2023-02-05T15:03:07.633Z,101127.75
2023-02-05T15:05:38.123Z,101130.72
2023-02-05T15:08:08.910Z,101132.37
2023-02-05T15:10:37.600Z,101136.34
2023-02-05T15:13:12.339Z,101139.78
2023-02-05T15:15:39.988Z,101145.94
2023-02-05T15:18:16.444Z,101136.22
2023-02-05T15:20:47.086Z,101149.59
2023-02-05T15:23:17.940Z,101150.66
2023-02-05T15:25:46.618Z,101147.88
2023-02-05T15:28:34.149Z,101148.06
2023-02-05T15:31:09.473Z,101150.97
2023-02-05T15:33:42.562Z,101141.47
2023-02-05T15:36:18.656Z,101141.81
2023-02-05T15:38:48.073Z,101150.00
2023-02-05T15:41:15.840Z,101149.75
2023-02-05T15:43:56.655Z,101147.75
2023-02-05T15:46:24.148Z,101151.00
2023-02-05T15:48:51.461Z,101152.63
2023-02-05T15:51:22.646Z,101156.81
2023-02-05T15:53:50.398Z,101157.28
2023-02-05T15:56:20.682Z,101160.88
2023-02-05T15:58:52.654Z,101169.94
2023-02-05T16:01:29.599Z,101170.88
2023-02-05T16:03:57.325Z,101167.69
2023-02-05T16:06:26.784Z,101165.87
2023-02-05T16:08:54.131Z,101166.56
2023-02-05T16:11:31.819Z,101178.22
2023-02-05T16:14:03.031Z,101181.28
2023-02-05T16:16:31.590Z,101182.03
2023-02-05T16:18:59.390Z,101179.00
2023-02-05T16:21:33.514Z,101181.03
2023-02-05T16:24:02.581Z,101175.81
2023-02-05T16:26:31.610Z,101180.72
2023-02-05T16:29:00.373Z,101184.25
2023-02-05T16:31:30.525Z,101186.28
2023-02-05T16:34:00.686Z,101195.97
2023-02-05T16:36:30.030Z,101191.75
2023-02-05T16:38:58.795Z,101191.56
2023-02-05T16:41:26.910Z,101193.94
2023-02-05T16:43:55.490Z,101195.38
2023-02-05T16:46:24.173Z,101194.16
2023-02-05T16:48:52.453Z,101196.03
2023-02-05T16:51:33.440Z,101197.62
2023-02-05T16:54:01.421Z,101206.63
2023-02-05T16:56:33.093Z,101200.19
2023-02-05T16:59:00.991Z,101205.84
2023-02-05T17:01:29.610Z,101210.09
2023-02-05T17:03:57.127Z,101217.47
2023-02-05T17:06:26.235Z,101221.31
2023-02-05T17:08:55.265Z,101236.84
2023-02-05T17:11:31.824Z,101226.19
2023-02-05T17:14:18.471Z,101231.66
2023-02-05T17:16:47.077Z,101236.66
2023-02-05T17:19:31.524Z,101235.66
2023-02-05T17:22:14.054Z,101248.00
2023-02-05T17:24:42.060Z,101249.94
2023-02-05T17:27:29.603Z,101255.50
2023-02-05T17:29:57.903Z,101250.66
2023-02-05T17:32:25.325Z,101248.00
2023-02-05T17:34:52.702Z,101246.66
2023-02-05T17:37:20.211Z,101247.25
2023-02-05T17:39:47.599Z,101248.69
2023-02-05T17:42:19.666Z,101248.50
2023-02-05T17:44:47.490Z,101252.62
2023-02-05T17:47:14.977Z,101253.31
2023-02-05T17:49:42.505Z,101246.13
2023-02-05T17:52:10.217Z,101251.97
2023-02-05T17:54:37.511Z,101248.72
2023-02-05T17:57:14.504Z,101257.59
2023-02-05T17:59:44.809Z,101262.62
2023-02-05T18:02:13.432Z,101256.69
2023-02-05T18:04:41.442Z,101261.81
2023-02-05T18:07:24.140Z,101254.00
2023-02-05T18:09:51.785Z,101255.94
2023-02-05T18:12:19.148Z,101259.78
2023-02-05T18:14:46.568Z,101264.41
2023-02-05T18:17:14.179Z,101263.63
2023-02-05T18:19:41.509Z,101268.34
2023-02-05T18:22:09.209Z,101267.56
2023-02-05T18:24:39.917Z,101273.25
2023-02-05T18:27:11.226Z,101283.88
2023-02-05T18:29:38.910Z,101294.09
2023-02-05T18:32:06.330Z,101301.50
2023-02-05T18:34:33.714Z,101307.78
2023-02-05T18:37:01.216Z,101319.69
2023-02-05T18:39:29.583Z,101309.59
2023-02-05T18:41:58.023Z,101317.47
2023-02-05T18:44:26.050Z,101321.56
2023-02-05T18:46:54.140Z,101329.53
2023-02-05T18:49:21.281Z,101329.41
2023-02-05T18:51:48.920Z,101329.06
2023-02-05T18:54:16.222Z,101330.03
2023-02-05T18:56:43.516Z,101336.06
2023-02-05T18:59:12.849Z,101339.38
2023-02-05T19:01:40.317Z,101348.81
2023-02-05T19:04:08.869Z,101345.84
2023-02-05T19:06:36.744Z,101350.44
2023-02-05T19:09:04.361Z,101356.22
2023-02-05T19:11:31.798Z,101359.19
2023-02-05T19:14:04.356Z,101354.97
2023-02-05T19:16:32.700Z,101359.56
2023-02-05T19:19:00.274Z,101364.50
2023-02-05T19:21:29.321Z,101361.75
2023-02-05T19:23:57.206Z,101359.72
2023-02-05T19:26:26.240Z,101366.72
2023-02-05T19:28:56.027Z,101361.66
2023-02-05T19:31:24.453Z,101374.97
2023-02-05T19:33:52.286Z,101367.44
2023-02-05T19:36:23.114Z,101366.75
2023-02-05T19:38:50.446Z,101370.56
2023-02-05T19:41:18.959Z,101369.97
2023-02-05T19:43:50.596Z,101377.88
2023-02-05T19:46:18.813Z,101379.87
2023-02-05T19:48:46.288Z,101382.37
2023-02-05T19:51:14.086Z,101382.53
2023-02-05T19:53:43.219Z,101387.69
2023-02-05T19:56:28.705Z,101390.72
2023-02-05T19:58:56.414Z,101398.41
2023-02-05T20:01:24.983Z,101392.63
2023-02-05T20:03:53.511Z,101391.47
2023-02-05T20:06:22.721Z,101389.44
2023-02-05T20:08:50.036Z,101392.25
2023-02-05T20:11:18.605Z,101388.88
2023-02-05T20:13:46.641Z,101388.78
2023-02-05T20:16:22.980Z,101385.94
2023-02-05T20:18:54.274Z,101387.72
2023-02-05T20:21:21.697Z,101393.19
2023-02-05T20:23:49.255Z,101400.06
2023-02-05T20:26:19.123Z,101395.09
2023-02-05T20:29:05.743Z,101393.78
2023-02-05T20:31:33.512Z,101401.56
2023-02-05T20:34:04.898Z,101401.34
2023-02-05T20:36:33.034Z,101400.00
2023-02-05T20:39:00.901Z,101398.00
2023-02-05T20:41:28.333Z,101405.78
2023-02-05T20:43:56.603Z,101402.25
2023-02-05T20:46:24.544Z,101413.94
2023-02-05T20:48:52.132Z,101417.50
2023-02-05T20:51:20.330Z,101415.66
2023-02-05T20:53:48.274Z,101411.44
2023-02-05T20:56:16.658Z,101414.00
2023-02-05T20:58:44.423Z,101413.94
2023-02-05T21:01:12.865Z,101418.41
2023-02-05T21:03:42.220Z,101416.28
2023-02-05T21:06:10.162Z,101411.12
2023-02-05T21:08:38.110Z,101417.41
2023-02-05T21:11:05.701Z,101420.22
2023-02-05T21:13:33.481Z,101423.37
2023-02-05T21:16:01.502Z,101425.69
2023-02-05T21:18:29.008Z,101423.84
2023-02-05T21:21:00.087Z,101425.78
2023-02-05T21:23:27.344Z,101429.87
2023-02-05T21:25:54.639Z,101427.28
2023-02-05T21:28:22.871Z,101425.78
2023-02-05T21:30:51.198Z,101433.87
2023-02-05T21:33:18.481Z,101423.13
2023-02-05T21:35:46.046Z,101425.00
2023-02-05T21:38:13.373Z,101431.31
2023-02-05T21:40:40.622Z,101429.50
2023-02-05T21:43:08.026Z,101444.91
2023-02-05T21:45:36.943Z,101453.66
2023-02-05T21:48:04.269Z,101454.47
2023-02-05T21:50:31.812Z,101465.22
2023-02-05T21:52:59.003Z,101468.66
2023-02-05T21:55:26.887Z,101467.66
2023-02-05T21:57:54.334Z,101471.50
2023-02-05T22:00:21.497Z,101473.63
2023-02-05T22:02:48.912Z,101475.13
2023-02-05T22:05:16.221Z,101470.44
2023-02-05T22:07:43.422Z,101486.66
2023-02-05T22:10:10.827Z,101487.56
2023-02-05T22:12:37.961Z,101491.63
2023-02-05T22:15:05.491Z,101497.22
2023-02-05T22:17:33.372Z,101499.56
2023-02-05T22:20:00.510Z,101507.59
2023-02-05T22:22:27.748Z,101508.50
2023-02-05T22:24:55.192Z,101510.19
2023-02-05T22:27:22.522Z,101511.28
2023-02-05T22:29:50.101Z,101513.94
2023-02-05T22:32:17.529Z,101518.06
2023-02-05T22:34:44.758Z,101517.81
2023-02-05T22:37:11.939Z,101513.69
2023-02-05T22:39:39.385Z,101515.28
2023-02-05T22:42:06.546Z,101514.69
2023-02-05T22:44:33.915Z,101511.91
2023-02-05T22:47:01.328Z,101515.63
2023-02-05T22:49:28.482Z,101517.81
2023-02-05T22:51:55.713Z,101519.19
2023-02-05T22:54:23.102Z,101510.88
2023-02-05T22:56:50.261Z,101507.59
2023-02-05T22:59:17.585Z,101514.72
2023-02-05T23:01:45.098Z,101511.53
2023-02-05T23:04:12.302Z,101509.75
2023-02-05T23:06:40.628Z,101514.84
2023-02-05T23:09:10.021Z,101505.41
2023-02-05T23:11:37.384Z,101515.56
2023-02-05T23:14:04.932Z,101511.97
2023-02-05T23:16:33.602Z,101504.87
2023-02-05T23:19:01.663Z,101513.00
2023-02-05T23:21:29.722Z,101501.00
2023-02-05T23:23:57.276Z,101518.13
2023-02-05T23:26:28.518Z,101515.03
2023-02-05T23:28:55.930Z,101523.47
2023-02-05T23:31:23.892Z,101523.84
2023-02-05T23:33:51.240Z,101530.59
2023-02-05T23:36:18.731Z,101530.41
2023-02-05T23:38:46.295Z,101529.06
2023-02-05T23:41:13.440Z,101531.84
2023-02-05T23:43:40.655Z,101528.06
2023-02-05T23:46:08.203Z,101528.34
2023-02-05T23:48:35.547Z,101531.84
2023-02-05T23:51:02.767Z,101530.47
2023-02-05T23:53:30.216Z,101533.44
2023-02-05T23:55:57.365Z,101531.28
2023-02-05T23:58:25.998Z,101530.59
